sensor_id;sensor_type;location;lat;lon;timestamp;temperature;humidity
36990;DHT22;22898;52.102;5.776;2023-04-06T00:00:48;9.70;74.70
36990;DHT22;22898;52.102;5.776;2023-04-06T00:03:14;9.70;75.10
36990;DHT22;22898;52.102;5.776;2023-04-06T00:05:40;9.90;74.30
36990;DHT22;22898;52.102;5.776;2023-04-06T00:08:06;10.00;74.00
36990;DHT22;22898;52.102;5.776;2023-04-06T00:10:31;10.00;73.90
36990;DHT22;22898;52.102;5.776;2023-04-06T00:12:58;9.90;74.00
36990;DHT22;22898;52.102;5.776;2023-04-06T00:15:25;10.00;73.90
36990;DHT22;22898;52.102;5.776;2023-04-06T00:17:50;10.10;73.70
36990;DHT22;22898;52.102;5.776;2023-04-06T00:20:16;10.10;73.60
36990;DHT22;22898;52.102;5.776;2023-04-06T00:22:42;10.20;73.40
36990;DHT22;22898;52.102;5.776;2023-04-06T00:25:08;10.20;73.10
36990;DHT22;22898;52.102;5.776;2023-04-06T00:27:35;10.20;73.30
36990;DHT22;22898;52.102;5.776;2023-04-06T00:30:01;10.20;73.70
36990;DHT22;22898;52.102;5.776;2023-04-06T00:32:27;10.20;72.70
36990;DHT22;22898;52.102;5.776;2023-04-06T00:34:53;10.30;72.60
36990;DHT22;22898;52.102;5.776;2023-04-06T00:37:19;10.30;72.40
36990;DHT22;22898;52.102;5.776;2023-04-06T00:39:44;10.40;72.20
36990;DHT22;22898;52.102;5.776;2023-04-06T00:42:13;10.40;71.90
36990;DHT22;22898;52.102;5.776;2023-04-06T00:44:43;10.50;71.90
36990;DHT22;22898;52.102;5.776;2023-04-06T00:47:08;10.50;72.00
36990;DHT22;22898;52.102;5.776;2023-04-06T00:49:34;10.40;72.20
36990;DHT22;22898;52.102;5.776;2023-04-06T00:52:00;10.40;72.10
36990;DHT22;22898;52.102;5.776;2023-04-06T00:54:29;10.40;71.90
36990;DHT22;22898;52.102;5.776;2023-04-06T00:56:56;10.40;72.00
36990;DHT22;22898;52.102;5.776;2023-04-06T00:59:21;10.20;72.30
36990;DHT22;22898;52.102;5.776;2023-04-06T01:01:47;10.10;72.40
36990;DHT22;22898;52.102;5.776;2023-04-06T01:04:13;10.10;72.60
36990;DHT22;22898;52.102;5.776;2023-04-06T01:06:39;10.10;72.80
36990;DHT22;22898;52.102;5.776;2023-04-06T01:09:05;10.00;73.00
36990;DHT22;22898;52.102;5.776;2023-04-06T01:11:30;9.90;73.30
36990;DHT22;22898;52.102;5.776;2023-04-06T01:13:56;9.90;73.30
36990;DHT22;22898;52.102;5.776;2023-04-06T01:16:22;9.90;73.30
36990;DHT22;22898;52.102;5.776;2023-04-06T01:18:47;9.90;73.60
36990;DHT22;22898;52.102;5.776;2023-04-06T01:21:13;9.80;74.00
36990;DHT22;22898;52.102;5.776;2023-04-06T01:23:47;9.80;74.20
36990;DHT22;22898;52.102;5.776;2023-04-06T01:26:13;9.90;73.80
36990;DHT22;22898;52.102;5.776;2023-04-06T01:28:39;9.90;73.50
36990;DHT22;22898;52.102;5.776;2023-04-06T01:31:07;9.90;73.60
36990;DHT22;22898;52.102;5.776;2023-04-06T01:33:32;9.80;73.70
36990;DHT22;22898;52.102;5.776;2023-04-06T01:35:58;9.80;73.60
36990;DHT22;22898;52.102;5.776;2023-04-06T01:38:24;9.80;73.40
36990;DHT22;22898;52.102;5.776;2023-04-06T01:40:50;9.80;73.60
36990;DHT22;22898;52.102;5.776;2023-04-06T01:43:16;9.80;73.60
36990;DHT22;22898;52.102;5.776;2023-04-06T01:45:42;9.80;73.60
36990;DHT22;22898;52.102;5.776;2023-04-06T01:48:07;9.80;73.70
36990;DHT22;22898;52.102;5.776;2023-04-06T01:50:33;9.80;73.60
36990;DHT22;22898;52.102;5.776;2023-04-06T01:52:58;9.70;73.80
36990;DHT22;22898;52.102;5.776;2023-04-06T01:55:24;9.70;73.80
36990;DHT22;22898;52.102;5.776;2023-04-06T01:57:50;9.70;74.10
36990;DHT22;22898;52.102;5.776;2023-04-06T02:00:15;9.70;74.10
36990;DHT22;22898;52.102;5.776;2023-04-06T02:02:41;9.60;74.40
36990;DHT22;22898;52.102;5.776;2023-04-06T02:05:07;9.70;74.70
36990;DHT22;22898;52.102;5.776;2023-04-06T02:07:33;9.70;74.20
36990;DHT22;22898;52.102;5.776;2023-04-06T02:09:59;9.70;74.10
36990;DHT22;22898;52.102;5.776;2023-04-06T02:12:24;9.80;73.90
36990;DHT22;22898;52.102;5.776;2023-04-06T02:14:50;9.80;73.90
36990;DHT22;22898;52.102;5.776;2023-04-06T02:17:15;9.80;74.50
36990;DHT22;22898;52.102;5.776;2023-04-06T02:19:41;9.70;75.00
36990;DHT22;22898;52.102;5.776;2023-04-06T02:22:06;9.70;75.50
36990;DHT22;22898;52.102;5.776;2023-04-06T02:24:32;9.80;74.60
36990;DHT22;22898;52.102;5.776;2023-04-06T02:26:58;9.80;74.50
36990;DHT22;22898;52.102;5.776;2023-04-06T02:29:23;9.90;74.50
36990;DHT22;22898;52.102;5.776;2023-04-06T02:31:49;9.90;74.20
36990;DHT22;22898;52.102;5.776;2023-04-06T02:34:14;10.00;74.20
36990;DHT22;22898;52.102;5.776;2023-04-06T02:36:46;10.00;74.10
36990;DHT22;22898;52.102;5.776;2023-04-06T02:39:12;10.10;74.00
36990;DHT22;22898;52.102;5.776;2023-04-06T02:41:38;10.10;74.10
36990;DHT22;22898;52.102;5.776;2023-04-06T02:44:07;10.10;73.90
36990;DHT22;22898;52.102;5.776;2023-04-06T02:46:32;10.10;73.80
36990;DHT22;22898;52.102;5.776;2023-04-06T02:48:58;10.10;73.80
36990;DHT22;22898;52.102;5.776;2023-04-06T02:51:26;10.10;74.00
36990;DHT22;22898;52.102;5.776;2023-04-06T02:53:52;10.10;73.90
36990;DHT22;22898;52.102;5.776;2023-04-06T02:56:17;10.20;73.90
36990;DHT22;22898;52.102;5.776;2023-04-06T02:58:43;10.20;74.00
36990;DHT22;22898;52.102;5.776;2023-04-06T03:01:09;10.20;73.80
36990;DHT22;22898;52.102;5.776;2023-04-06T03:03:34;10.10;74.10
36990;DHT22;22898;52.102;5.776;2023-04-06T03:06:00;10.10;74.30
36990;DHT22;22898;52.102;5.776;2023-04-06T03:08:26;10.10;74.40
36990;DHT22;22898;52.102;5.776;2023-04-06T03:10:51;10.10;74.40
36990;DHT22;22898;52.102;5.776;2023-04-06T03:13:17;10.10;75.00
36990;DHT22;22898;52.102;5.776;2023-04-06T03:15:42;10.00;75.20
36990;DHT22;22898;52.102;5.776;2023-04-06T03:18:08;10.00;75.40
36990;DHT22;22898;52.102;5.776;2023-04-06T03:20:33;10.00;75.40
36990;DHT22;22898;52.102;5.776;2023-04-06T03:22:59;10.00;76.00
36990;DHT22;22898;52.102;5.776;2023-04-06T03:25:25;9.90;76.20
36990;DHT22;22898;52.102;5.776;2023-04-06T03:27:50;9.90;76.10
36990;DHT22;22898;52.102;5.776;2023-04-06T03:30:16;10.10;75.80
36990;DHT22;22898;52.102;5.776;2023-04-06T03:32:43;10.10;75.90
36990;DHT22;22898;52.102;5.776;2023-04-06T03:35:09;10.20;75.60
36990;DHT22;22898;52.102;5.776;2023-04-06T03:37:35;10.40;75.40
36990;DHT22;22898;52.102;5.776;2023-04-06T03:40:01;10.50;75.10
36990;DHT22;22898;52.102;5.776;2023-04-06T03:42:26;10.50;74.80
36990;DHT22;22898;52.102;5.776;2023-04-06T03:44:52;10.50;74.60
36990;DHT22;22898;52.102;5.776;2023-04-06T03:47:17;10.60;74.40
36990;DHT22;22898;52.102;5.776;2023-04-06T03:49:44;10.60;75.00
36990;DHT22;22898;52.102;5.776;2023-04-06T03:52:09;10.60;75.50
36990;DHT22;22898;52.102;5.776;2023-04-06T03:54:35;10.60;75.70
36990;DHT22;22898;52.102;5.776;2023-04-06T03:57:01;10.60;74.90
36990;DHT22;22898;52.102;5.776;2023-04-06T03:59:27;10.50;75.20
36990;DHT22;22898;52.102;5.776;2023-04-06T04:01:52;10.60;74.70
36990;DHT22;22898;52.102;5.776;2023-04-06T04:04:18;10.70;74.50
36990;DHT22;22898;52.102;5.776;2023-04-06T04:06:43;10.60;74.60
36990;DHT22;22898;52.102;5.776;2023-04-06T04:09:09;10.50;75.40
36990;DHT22;22898;52.102;5.776;2023-04-06T04:11:35;10.50;75.40
36990;DHT22;22898;52.102;5.776;2023-04-06T04:14:00;10.50;75.70
36990;DHT22;22898;52.102;5.776;2023-04-06T04:16:26;10.50;75.40
36990;DHT22;22898;52.102;5.776;2023-04-06T04:18:51;10.70;74.80
36990;DHT22;22898;52.102;5.776;2023-04-06T04:21:17;10.60;75.30
36990;DHT22;22898;52.102;5.776;2023-04-06T04:23:43;10.50;75.40
36990;DHT22;22898;52.102;5.776;2023-04-06T04:26:08;10.30;76.20
36990;DHT22;22898;52.102;5.776;2023-04-06T04:28:34;10.40;76.30
36990;DHT22;22898;52.102;5.776;2023-04-06T04:30:59;10.60;75.40
36990;DHT22;22898;52.102;5.776;2023-04-06T04:33:25;10.80;74.90
36990;DHT22;22898;52.102;5.776;2023-04-06T04:35:50;10.80;74.10
36990;DHT22;22898;52.102;5.776;2023-04-06T04:38:16;10.80;74.70
36990;DHT22;22898;52.102;5.776;2023-04-06T04:40:41;11.00;74.10
36990;DHT22;22898;52.102;5.776;2023-04-06T04:43:07;11.00;74.10
36990;DHT22;22898;52.102;5.776;2023-04-06T04:45:32;11.00;73.80
36990;DHT22;22898;52.102;5.776;2023-04-06T04:47:58;11.00;74.50
36990;DHT22;22898;52.102;5.776;2023-04-06T04:50:24;11.00;74.40
36990;DHT22;22898;52.102;5.776;2023-04-06T04:52:49;11.00;75.50
36990;DHT22;22898;52.102;5.776;2023-04-06T04:55:15;11.10;74.20
36990;DHT22;22898;52.102;5.776;2023-04-06T04:57:40;11.20;73.90
36990;DHT22;22898;52.102;5.776;2023-04-06T05:00:06;11.20;73.90
36990;DHT22;22898;52.102;5.776;2023-04-06T05:02:32;11.20;73.90
36990;DHT22;22898;52.102;5.776;2023-04-06T05:04:58;11.20;73.90
36990;DHT22;22898;52.102;5.776;2023-04-06T05:07:23;11.00;74.30
36990;DHT22;22898;52.102;5.776;2023-04-06T05:09:49;11.10;74.20
36990;DHT22;22898;52.102;5.776;2023-04-06T05:12:15;11.10;74.10
36990;DHT22;22898;52.102;5.776;2023-04-06T05:14:40;11.20;73.90
36990;DHT22;22898;52.102;5.776;2023-04-06T05:17:06;11.20;73.90
36990;DHT22;22898;52.102;5.776;2023-04-06T05:19:32;11.20;74.00
36990;DHT22;22898;52.102;5.776;2023-04-06T05:21:57;11.30;73.90
36990;DHT22;22898;52.102;5.776;2023-04-06T05:24:23;11.40;73.80
36990;DHT22;22898;52.102;5.776;2023-04-06T05:26:49;11.40;73.80
36990;DHT22;22898;52.102;5.776;2023-04-06T05:29:15;11.40;73.70
36990;DHT22;22898;52.102;5.776;2023-04-06T05:31:40;11.30;74.40
36990;DHT22;22898;52.102;5.776;2023-04-06T05:34:06;11.50;74.00
36990;DHT22;22898;52.102;5.776;2023-04-06T05:36:31;11.60;73.40
36990;DHT22;22898;52.102;5.776;2023-04-06T05:38:57;11.60;73.80
36990;DHT22;22898;52.102;5.776;2023-04-06T05:41:23;11.60;73.80
36990;DHT22;22898;52.102;5.776;2023-04-06T05:43:49;11.70;73.40
36990;DHT22;22898;52.102;5.776;2023-04-06T05:46:15;11.80;73.20
36990;DHT22;22898;52.102;5.776;2023-04-06T05:48:41;11.80;73.60
36990;DHT22;22898;52.102;5.776;2023-04-06T05:51:07;11.80;73.90
36990;DHT22;22898;52.102;5.776;2023-04-06T05:53:32;11.90;73.60
36990;DHT22;22898;52.102;5.776;2023-04-06T05:56:01;12.00;73.20
36990;DHT22;22898;52.102;5.776;2023-04-06T05:58:27;12.00;73.00
36990;DHT22;22898;52.102;5.776;2023-04-06T06:00:57;12.10;73.30
36990;DHT22;22898;52.102;5.776;2023-04-06T06:03:23;12.20;73.20
36990;DHT22;22898;52.102;5.776;2023-04-06T06:05:48;12.30;72.90
36990;DHT22;22898;52.102;5.776;2023-04-06T06:08:14;12.50;72.30
36990;DHT22;22898;52.102;5.776;2023-04-06T06:10:39;12.60;72.50
36990;DHT22;22898;52.102;5.776;2023-04-06T06:13:05;12.50;72.60
36990;DHT22;22898;52.102;5.776;2023-04-06T06:15:31;12.50;72.90
36990;DHT22;22898;52.102;5.776;2023-04-06T06:17:56;12.70;72.30
36990;DHT22;22898;52.102;5.776;2023-04-06T06:20:22;12.90;71.60
36990;DHT22;22898;52.102;5.776;2023-04-06T06:22:47;12.80;72.50
36990;DHT22;22898;52.102;5.776;2023-04-06T06:25:13;12.80;72.90
36990;DHT22;22898;52.102;5.776;2023-04-06T06:27:39;12.80;73.00
36990;DHT22;22898;52.102;5.776;2023-04-06T06:30:05;12.70;73.50
36990;DHT22;22898;52.102;5.776;2023-04-06T06:32:32;13.10;72.50
36990;DHT22;22898;52.102;5.776;2023-04-06T06:34:58;13.40;71.40
36990;DHT22;22898;52.102;5.776;2023-04-06T06:37:23;13.40;71.30
36990;DHT22;22898;52.102;5.776;2023-04-06T06:39:49;13.60;70.90
36990;DHT22;22898;52.102;5.776;2023-04-06T06:42:14;13.60;71.30
36990;DHT22;22898;52.102;5.776;2023-04-06T06:44:40;13.70;71.10
36990;DHT22;22898;52.102;5.776;2023-04-06T06:47:05;13.90;70.80
36990;DHT22;22898;52.102;5.776;2023-04-06T06:49:31;14.00;71.10
36990;DHT22;22898;52.102;5.776;2023-04-06T06:51:56;13.90;71.10
36990;DHT22;22898;52.102;5.776;2023-04-06T06:54:22;13.70;71.80
36990;DHT22;22898;52.102;5.776;2023-04-06T06:56:47;13.90;71.30
36990;DHT22;22898;52.102;5.776;2023-04-06T06:59:13;14.30;71.30
36990;DHT22;22898;52.102;5.776;2023-04-06T07:01:38;14.50;70.80
36990;DHT22;22898;52.102;5.776;2023-04-06T07:04:04;14.60;70.20
36990;DHT22;22898;52.102;5.776;2023-04-06T07:06:30;14.60;69.90
36990;DHT22;22898;52.102;5.776;2023-04-06T07:08:55;14.60;70.00
36990;DHT22;22898;52.102;5.776;2023-04-06T07:11:21;14.40;70.40
36990;DHT22;22898;52.102;5.776;2023-04-06T07:13:46;14.50;70.90
36990;DHT22;22898;52.102;5.776;2023-04-06T07:16:12;14.90;69.80
36990;DHT22;22898;52.102;5.776;2023-04-06T07:18:37;15.40;68.80
36990;DHT22;22898;52.102;5.776;2023-04-06T07:21:03;15.70;67.10
36990;DHT22;22898;52.102;5.776;2023-04-06T07:23:29;15.50;66.90
36990;DHT22;22898;52.102;5.776;2023-04-06T07:25:54;15.40;67.20
36990;DHT22;22898;52.102;5.776;2023-04-06T07:28:20;15.40;67.10
36990;DHT22;22898;52.102;5.776;2023-04-06T07:30:46;15.40;66.90
36990;DHT22;22898;52.102;5.776;2023-04-06T07:33:12;15.60;65.70
36990;DHT22;22898;52.102;5.776;2023-04-06T07:35:37;15.60;65.80
36990;DHT22;22898;52.102;5.776;2023-04-06T07:38:03;15.50;67.40
36990;DHT22;22898;52.102;5.776;2023-04-06T07:40:29;15.90;65.80
36990;DHT22;22898;52.102;5.776;2023-04-06T07:42:56;16.20;64.40
36990;DHT22;22898;52.102;5.776;2023-04-06T07:45:22;16.20;64.90
36990;DHT22;22898;52.102;5.776;2023-04-06T07:47:48;16.40;64.10
36990;DHT22;22898;52.102;5.776;2023-04-06T07:50:13;16.20;64.50
36990;DHT22;22898;52.102;5.776;2023-04-06T07:52:39;16.10;63.90
36990;DHT22;22898;52.102;5.776;2023-04-06T07:55:05;15.90;64.20
36990;DHT22;22898;52.102;5.776;2023-04-06T07:57:30;15.70;65.70
36990;DHT22;22898;52.102;5.776;2023-04-06T07:59:56;16.00;64.80
36990;DHT22;22898;52.102;5.776;2023-04-06T08:02:21;16.10;64.70
36990;DHT22;22898;52.102;5.776;2023-04-06T08:04:47;15.90;64.70
36990;DHT22;22898;52.102;5.776;2023-04-06T08:07:13;15.80;64.40
36990;DHT22;22898;52.102;5.776;2023-04-06T08:09:39;15.90;64.60
36990;DHT22;22898;52.102;5.776;2023-04-06T08:12:04;15.90;65.10
36990;DHT22;22898;52.102;5.776;2023-04-06T08:14:30;16.10;65.30
36990;DHT22;22898;52.102;5.776;2023-04-06T08:16:55;16.20;64.80
36990;DHT22;22898;52.102;5.776;2023-04-06T08:19:21;16.20;65.10
36990;DHT22;22898;52.102;5.776;2023-04-06T08:21:46;16.30;65.00
36990;DHT22;22898;52.102;5.776;2023-04-06T08:24:13;16.30;64.70
36990;DHT22;22898;52.102;5.776;2023-04-06T08:26:38;16.10;66.30
36990;DHT22;22898;52.102;5.776;2023-04-06T08:29:04;16.10;65.70
36990;DHT22;22898;52.102;5.776;2023-04-06T08:31:35;15.80;66.20
36990;DHT22;22898;52.102;5.776;2023-04-06T08:34:03;16.00;66.30
36990;DHT22;22898;52.102;5.776;2023-04-06T08:36:28;16.10;65.60
36990;DHT22;22898;52.102;5.776;2023-04-06T08:38:54;16.40;65.20
36990;DHT22;22898;52.102;5.776;2023-04-06T08:41:20;16.70;64.90
36990;DHT22;22898;52.102;5.776;2023-04-06T08:43:58;16.60;65.90
36990;DHT22;22898;52.102;5.776;2023-04-06T08:46:24;16.60;65.50
36990;DHT22;22898;52.102;5.776;2023-04-06T08:48:57;16.60;66.40
36990;DHT22;22898;52.102;5.776;2023-04-06T08:51:24;16.80;66.00
36990;DHT22;22898;52.102;5.776;2023-04-06T08:53:57;17.30;63.90
36990;DHT22;22898;52.102;5.776;2023-04-06T08:56:23;17.60;62.60
36990;DHT22;22898;52.102;5.776;2023-04-06T08:58:50;17.70;63.00
36990;DHT22;22898;52.102;5.776;2023-04-06T09:01:18;17.80;63.70
36990;DHT22;22898;52.102;5.776;2023-04-06T09:03:46;18.00;63.10
36990;DHT22;22898;52.102;5.776;2023-04-06T09:06:13;18.10;63.00
36990;DHT22;22898;52.102;5.776;2023-04-06T09:08:40;18.40;62.00
36990;DHT22;22898;52.102;5.776;2023-04-06T09:11:06;18.40;62.30
36990;DHT22;22898;52.102;5.776;2023-04-06T09:14:01;18.20;63.20
36990;DHT22;22898;52.102;5.776;2023-04-06T09:16:27;18.40;62.90
36990;DHT22;22898;52.102;5.776;2023-04-06T09:18:52;18.30;63.30
36990;DHT22;22898;52.102;5.776;2023-04-06T09:21:19;18.20;63.20
36990;DHT22;22898;52.102;5.776;2023-04-06T09:23:46;18.20;63.50
36990;DHT22;22898;52.102;5.776;2023-04-06T09:26:17;18.40;62.60
36990;DHT22;22898;52.102;5.776;2023-04-06T09:31:13;19.10;61.90
36990;DHT22;22898;52.102;5.776;2023-04-06T09:33:40;19.20;61.60
36990;DHT22;22898;52.102;5.776;2023-04-06T09:36:06;19.20;61.30
36990;DHT22;22898;52.102;5.776;2023-04-06T09:38:32;18.70;61.90
36990;DHT22;22898;52.102;5.776;2023-04-06T09:40:58;18.70;61.90
36990;DHT22;22898;52.102;5.776;2023-04-06T09:43:27;18.70;61.60
36990;DHT22;22898;52.102;5.776;2023-04-06T09:45:53;18.70;62.10
36990;DHT22;22898;52.102;5.776;2023-04-06T09:48:21;19.00;62.00
36990;DHT22;22898;52.102;5.776;2023-04-06T09:50:53;19.20;62.10
36990;DHT22;22898;52.102;5.776;2023-04-06T09:53:20;19.50;61.40
36990;DHT22;22898;52.102;5.776;2023-04-06T09:55:49;19.60;61.10
36990;DHT22;22898;52.102;5.776;2023-04-06T09:58:16;19.50;61.70
36990;DHT22;22898;52.102;5.776;2023-04-06T10:00:59;19.60;61.50
36990;DHT22;22898;52.102;5.776;2023-04-06T10:03:45;19.40;62.70
36990;DHT22;22898;52.102;5.776;2023-04-06T10:06:15;19.30;63.20
36990;DHT22;22898;52.102;5.776;2023-04-06T10:08:45;19.50;62.70
36990;DHT22;22898;52.102;5.776;2023-04-06T10:11:13;19.90;62.20
36990;DHT22;22898;52.102;5.776;2023-04-06T10:13:38;20.20;61.70
36990;DHT22;22898;52.102;5.776;2023-04-06T10:16:04;20.50;61.00
36990;DHT22;22898;52.102;5.776;2023-04-06T10:18:31;20.60;60.40
36990;DHT22;22898;52.102;5.776;2023-04-06T10:21:12;20.10;61.50
36990;DHT22;22898;52.102;5.776;2023-04-06T10:23:59;20.00;61.70
36990;DHT22;22898;52.102;5.776;2023-04-06T10:26:26;19.70;62.90
36990;DHT22;22898;52.102;5.776;2023-04-06T10:28:51;19.40;64.00
36990;DHT22;22898;52.102;5.776;2023-04-06T10:31:27;19.30;64.30
36990;DHT22;22898;52.102;5.776;2023-04-06T10:34:01;19.40;64.40
36990;DHT22;22898;52.102;5.776;2023-04-06T10:36:34;19.80;63.40
36990;DHT22;22898;52.102;5.776;2023-04-06T10:39:03;19.70;64.10
36990;DHT22;22898;52.102;5.776;2023-04-06T10:41:42;19.50;64.70
36990;DHT22;22898;52.102;5.776;2023-04-06T10:44:08;19.60;64.60
36990;DHT22;22898;52.102;5.776;2023-04-06T10:46:59;19.80;64.20
36990;DHT22;22898;52.102;5.776;2023-04-06T10:49:27;19.60;65.80
36990;DHT22;22898;52.102;5.776;2023-04-06T10:51:57;19.40;66.00
36990;DHT22;22898;52.102;5.776;2023-04-06T10:54:24;19.30;66.00
36990;DHT22;22898;52.102;5.776;2023-04-06T10:56:50;19.60;65.80
36990;DHT22;22898;52.102;5.776;2023-04-06T10:59:20;19.30;66.30
36990;DHT22;22898;52.102;5.776;2023-04-06T11:01:46;19.60;66.00
36990;DHT22;22898;52.102;5.776;2023-04-06T11:04:16;19.60;66.40
36990;DHT22;22898;52.102;5.776;2023-04-06T11:06:46;19.40;67.50
36990;DHT22;22898;52.102;5.776;2023-04-06T11:09:26;19.30;68.40
36990;DHT22;22898;52.102;5.776;2023-04-06T11:11:52;19.30;69.70
36990;DHT22;22898;52.102;5.776;2023-04-06T11:14:18;19.50;70.00
36990;DHT22;22898;52.102;5.776;2023-04-06T11:16:46;19.30;70.50
36990;DHT22;22898;52.102;5.776;2023-04-06T11:19:12;19.50;71.10
36990;DHT22;22898;52.102;5.776;2023-04-06T11:21:40;19.80;69.70
36990;DHT22;22898;52.102;5.776;2023-04-06T11:24:21;19.50;70.30
36990;DHT22;22898;52.102;5.776;2023-04-06T11:26:57;17.90;76.50
36990;DHT22;22898;52.102;5.776;2023-04-06T11:29:28;18.00;76.70
36990;DHT22;22898;52.102;5.776;2023-04-06T11:32:04;18.60;76.50
36990;DHT22;22898;52.102;5.776;2023-04-06T11:34:36;18.60;76.60
36990;DHT22;22898;52.102;5.776;2023-04-06T11:37:06;18.50;79.10
36990;DHT22;22898;52.102;5.776;2023-04-06T11:39:38;17.80;80.20
36990;DHT22;22898;52.102;5.776;2023-04-06T11:42:04;17.20;84.20
36990;DHT22;22898;52.102;5.776;2023-04-06T11:44:35;17.70;82.10
36990;DHT22;22898;52.102;5.776;2023-04-06T11:47:02;17.60;82.30
36990;DHT22;22898;52.102;5.776;2023-04-06T11:49:29;18.10;81.70
36990;DHT22;22898;52.102;5.776;2023-04-06T11:51:56;18.50;80.90
36990;DHT22;22898;52.102;5.776;2023-04-06T11:54:37;18.20;82.00
36990;DHT22;22898;52.102;5.776;2023-04-06T11:57:04;17.70;83.30
36990;DHT22;22898;52.102;5.776;2023-04-06T11:59:31;17.50;84.00
36990;DHT22;22898;52.102;5.776;2023-04-06T12:01:57;17.60;84.40
36990;DHT22;22898;52.102;5.776;2023-04-06T12:04:23;17.50;84.80
36990;DHT22;22898;52.102;5.776;2023-04-06T12:06:49;17.10;86.80
36990;DHT22;22898;52.102;5.776;2023-04-06T12:09:15;17.10;86.90
36990;DHT22;22898;52.102;5.776;2023-04-06T12:11:40;17.10;87.30
36990;DHT22;22898;52.102;5.776;2023-04-06T12:14:06;17.00;86.70
36990;DHT22;22898;52.102;5.776;2023-04-06T12:16:33;17.20;86.10
36990;DHT22;22898;52.102;5.776;2023-04-06T12:18:59;17.20;87.30
36990;DHT22;22898;52.102;5.776;2023-04-06T12:21:27;17.30;86.90
36990;DHT22;22898;52.102;5.776;2023-04-06T12:23:53;16.30;90.40
36990;DHT22;22898;52.102;5.776;2023-04-06T12:26:19;16.00;90.40
36990;DHT22;22898;52.102;5.776;2023-04-06T12:28:45;16.00;90.40
36990;DHT22;22898;52.102;5.776;2023-04-06T12:31:17;16.20;89.50
36990;DHT22;22898;52.102;5.776;2023-04-06T12:33:46;16.00;91.00
36990;DHT22;22898;52.102;5.776;2023-04-06T12:36:16;16.10;90.50
36990;DHT22;22898;52.102;5.776;2023-04-06T12:38:44;15.90;90.90
36990;DHT22;22898;52.102;5.776;2023-04-06T12:41:11;16.30;90.80
36990;DHT22;22898;52.102;5.776;2023-04-06T12:43:37;16.50;89.40
36990;DHT22;22898;52.102;5.776;2023-04-06T12:46:03;16.80;90.40
36990;DHT22;22898;52.102;5.776;2023-04-06T12:48:29;16.60;90.70
36990;DHT22;22898;52.102;5.776;2023-04-06T12:51:00;16.40;91.10
36990;DHT22;22898;52.102;5.776;2023-04-06T12:53:26;16.60;91.00
36990;DHT22;22898;52.102;5.776;2023-04-06T12:55:54;16.50;90.90
36990;DHT22;22898;52.102;5.776;2023-04-06T12:58:20;16.40;90.90
36990;DHT22;22898;52.102;5.776;2023-04-06T13:00:48;16.10;91.90
36990;DHT22;22898;52.102;5.776;2023-04-06T13:03:13;16.30;91.80
36990;DHT22;22898;52.102;5.776;2023-04-06T13:05:46;16.70;91.40
36990;DHT22;22898;52.102;5.776;2023-04-06T13:08:13;16.80;91.10
36990;DHT22;22898;52.102;5.776;2023-04-06T13:10:46;16.70;91.80
36990;DHT22;22898;52.102;5.776;2023-04-06T13:13:16;16.90;91.40
36990;DHT22;22898;52.102;5.776;2023-04-06T13:15:42;16.80;91.60
36990;DHT22;22898;52.102;5.776;2023-04-06T13:18:08;16.80;91.60
36990;DHT22;22898;52.102;5.776;2023-04-06T13:20:34;16.60;91.80
36990;DHT22;22898;52.102;5.776;2023-04-06T13:23:00;16.30;92.90
36990;DHT22;22898;52.102;5.776;2023-04-06T13:25:26;16.50;92.80
36990;DHT22;22898;52.102;5.776;2023-04-06T13:27:51;16.30;92.70
36990;DHT22;22898;52.102;5.776;2023-04-06T13:30:17;16.00;93.40
36990;DHT22;22898;52.102;5.776;2023-04-06T13:32:42;16.10;93.10
36990;DHT22;22898;52.102;5.776;2023-04-06T13:35:08;16.20;93.30
36990;DHT22;22898;52.102;5.776;2023-04-06T13:37:34;15.90;93.30
36990;DHT22;22898;52.102;5.776;2023-04-06T13:40:02;15.80;93.90
36990;DHT22;22898;52.102;5.776;2023-04-06T13:42:28;16.00;93.80
36990;DHT22;22898;52.102;5.776;2023-04-06T13:44:53;15.90;93.90
36990;DHT22;22898;52.102;5.776;2023-04-06T13:47:19;15.80;94.60
36990;DHT22;22898;52.102;5.776;2023-04-06T13:49:46;16.00;94.10
36990;DHT22;22898;52.102;5.776;2023-04-06T13:52:12;16.10;93.90
36990;DHT22;22898;52.102;5.776;2023-04-06T13:54:37;15.80;94.20
36990;DHT22;22898;52.102;5.776;2023-04-06T13:57:03;15.40;94.60
36990;DHT22;22898;52.102;5.776;2023-04-06T13:59:34;15.60;94.60
36990;DHT22;22898;52.102;5.776;2023-04-06T14:01:59;15.70;94.60
36990;DHT22;22898;52.102;5.776;2023-04-06T14:04:25;15.80;94.60
36990;DHT22;22898;52.102;5.776;2023-04-06T14:06:51;15.90;94.20
36990;DHT22;22898;52.102;5.776;2023-04-06T14:09:16;15.70;94.90
36990;DHT22;22898;52.102;5.776;2023-04-06T14:11:42;15.50;95.50
36990;DHT22;22898;52.102;5.776;2023-04-06T14:14:07;15.30;95.30
36990;DHT22;22898;52.102;5.776;2023-04-06T14:16:33;15.00;96.10
36990;DHT22;22898;52.102;5.776;2023-04-06T14:18:58;14.70;96.50
36990;DHT22;22898;52.102;5.776;2023-04-06T14:21:24;15.10;96.30
36990;DHT22;22898;52.102;5.776;2023-04-06T14:23:50;14.80;97.30
36990;DHT22;22898;52.102;5.776;2023-04-06T14:26:16;15.10;96.50
36990;DHT22;22898;52.102;5.776;2023-04-06T14:28:41;15.40;96.50
36990;DHT22;22898;52.102;5.776;2023-04-06T14:31:11;15.70;96.00
36990;DHT22;22898;52.102;5.776;2023-04-06T14:33:38;15.80;95.50
36990;DHT22;22898;52.102;5.776;2023-04-06T14:36:04;15.70;95.80
36990;DHT22;22898;52.102;5.776;2023-04-06T14:38:31;15.70;96.20
36990;DHT22;22898;52.102;5.776;2023-04-06T14:40:57;15.90;95.80
36990;DHT22;22898;52.102;5.776;2023-04-06T14:43:22;15.70;95.90
36990;DHT22;22898;52.102;5.776;2023-04-06T14:45:48;15.40;96.40
36990;DHT22;22898;52.102;5.776;2023-04-06T14:48:13;15.30;96.70
36990;DHT22;22898;52.102;5.776;2023-04-06T14:50:41;15.20;97.10
36990;DHT22;22898;52.102;5.776;2023-04-06T14:53:06;15.40;96.90
36990;DHT22;22898;52.102;5.776;2023-04-06T14:55:32;15.40;96.70
36990;DHT22;22898;52.102;5.776;2023-04-06T14:57:58;15.40;96.60
36990;DHT22;22898;52.102;5.776;2023-04-06T15:00:23;15.40;96.50
36990;DHT22;22898;52.102;5.776;2023-04-06T15:02:49;15.20;96.80
36990;DHT22;22898;52.102;5.776;2023-04-06T15:05:14;15.20;97.20
36990;DHT22;22898;52.102;5.776;2023-04-06T15:07:40;15.10;97.60
36990;DHT22;22898;52.102;5.776;2023-04-06T15:10:07;15.00;97.90
36990;DHT22;22898;52.102;5.776;2023-04-06T15:12:35;14.90;98.00
36990;DHT22;22898;52.102;5.776;2023-04-06T15:15:01;15.10;97.80
36990;DHT22;22898;52.102;5.776;2023-04-06T15:17:26;15.20;97.70
36990;DHT22;22898;52.102;5.776;2023-04-06T15:19:52;15.20;97.50
36990;DHT22;22898;52.102;5.776;2023-04-06T15:22:19;15.30;97.20
36990;DHT22;22898;52.102;5.776;2023-04-06T15:24:44;15.10;98.10
36990;DHT22;22898;52.102;5.776;2023-04-06T15:27:10;15.20;97.80
36990;DHT22;22898;52.102;5.776;2023-04-06T15:29:35;15.20;97.80
36990;DHT22;22898;52.102;5.776;2023-04-06T15:32:01;15.10;97.80